createdAt,value
2023-04-13T05:01:26.815Z,9.60
2023-04-13T05:06:40.972Z,9.61
2023-04-13T05:11:44.901Z,9.64
2023-04-13T05:16:51.103Z,9.64
2023-04-13T05:22:15.507Z,9.64
2023-04-13T05:27:25.192Z,9.62
2023-04-13T05:32:29.348Z,9.59
2023-04-13T05:37:34.213Z,9.54
2023-04-13T05:42:36.938Z,9.49
2023-04-13T05:47:40.113Z,9.46
2023-04-13T05:52:47.149Z,9.44
2023-04-13T05:57:48.772Z,9.42
2023-04-13T06:02:51.696Z,9.45
2023-04-13T06:07:53.960Z,9.42
2023-04-13T06:12:55.668Z,9.44
2023-04-13T06:17:57.237Z,9.44
2023-04-13T06:22:58.938Z,9.45
2023-04-13T06:28:02.537Z,9.42
2023-04-13T06:33:06.230Z,9.39
2023-04-13T06:38:10.153Z,9.34
2023-04-13T06:43:29.483Z,9.35
2023-04-13T06:48:50.556Z,9.38
2023-04-13T06:53:56.044Z,9.44
2023-04-13T06:59:02.646Z,9.58
2023-04-13T07:04:07.658Z,9.71
2023-04-13T07:09:10.083Z,9.94
2023-04-13T07:14:11.931Z,10.12
2023-04-13T07:19:14.073Z,10.28
2023-04-13T07:24:15.925Z,10.36
2023-04-13T07:29:19.388Z,10.34
2023-04-13T07:34:27.329Z,10.25
2023-04-13T07:39:29.200Z,10.25
2023-04-13T07:44:31.106Z,10.37
2023-04-13T07:49:32.767Z,10.55
2023-04-13T07:54:36.348Z,10.82
2023-04-13T07:59:40.926Z,11.05
2023-04-13T08:04:44.583Z,11.17
2023-04-13T08:09:50.038Z,11.29
2023-04-13T08:14:51.686Z,11.37
2023-04-13T08:19:54.320Z,11.26
2023-04-13T08:24:56.500Z,11.24
2023-04-13T08:30:01.837Z,11.29
2023-04-13T08:35:11.590Z,11.44
2023-04-13T08:40:14.017Z,11.63
2023-04-13T08:45:18.508Z,11.65
2023-04-13T08:50:22.715Z,11.76
2023-04-13T08:55:29.362Z,11.88
2023-04-13T09:00:35.810Z,11.96
2023-04-13T09:05:42.093Z,12.11
2023-04-13T09:10:44.809Z,12.18
2023-04-13T09:15:50.820Z,12.24
2023-04-13T09:20:59.939Z,12.44
2023-04-13T09:26:06.381Z,12.54
2023-04-13T09:31:08.673Z,12.55
2023-04-13T09:36:11.592Z,12.59
2023-04-13T09:41:13.131Z,12.50
2023-04-13T09:46:14.850Z,12.41
2023-04-13T09:51:16.931Z,12.42
2023-04-13T09:56:20.353Z,12.34
2023-04-13T10:01:23.119Z,12.26
2023-04-13T10:06:24.771Z,12.32
2023-04-13T10:11:26.296Z,12.52
2023-04-13T10:16:28.113Z,12.72
2023-04-13T10:21:36.187Z,12.87
2023-04-13T10:26:38.725Z,13.18
2023-04-13T10:31:40.225Z,13.59
2023-04-13T10:36:43.408Z,13.91
2023-04-13T10:41:44.985Z,14.06
2023-04-13T10:46:50.599Z,14.13
2023-04-13T10:51:52.176Z,14.33
2023-04-13T10:57:01.636Z,14.54
2023-04-13T11:02:10.877Z,14.31
2023-04-13T11:07:18.153Z,14.02
2023-04-13T11:12:19.960Z,14.28
2023-04-13T11:17:21.688Z,14.77
2023-04-13T11:22:25.496Z,15.05
2023-04-13T11:27:27.141Z,15.00
2023-04-13T11:32:28.645Z,14.72
2023-04-13T11:37:34.573Z,14.58
2023-04-13T11:42:41.293Z,14.60
2023-04-13T11:47:43.795Z,14.48
2023-04-13T11:52:48.895Z,13.96
2023-04-13T11:57:53.803Z,13.77
2023-04-13T12:03:02.438Z,14.26
2023-04-13T12:08:05.282Z,14.68
2023-04-13T12:23:25.113Z,15.46
2023-04-13T12:28:37.430Z,15.34
2023-04-13T12:33:39.851Z,15.24
2023-04-13T12:38:41.479Z,14.86
2023-04-13T12:43:42.925Z,14.77
2023-04-13T12:48:44.414Z,14.70
2023-04-13T12:53:46.127Z,14.48
2023-04-13T12:58:48.523Z,14.45
2023-04-13T13:03:50.322Z,14.85
2023-04-13T13:08:51.831Z,14.91
2023-04-13T13:13:53.256Z,14.73
2023-04-13T13:18:54.712Z,14.40
2023-04-13T13:23:56.159Z,14.48
2023-04-13T13:28:57.864Z,14.80
2023-04-13T13:33:59.709Z,15.15
2023-04-13T13:39:01.323Z,15.29
2023-04-13T13:44:03.106Z,15.82
2023-04-13T13:49:04.868Z,16.02
2023-04-13T13:54:26.732Z,15.83
2023-04-13T13:59:28.165Z,15.85
2023-04-13T14:04:29.608Z,15.76
2023-04-13T14:09:31.101Z,15.53
2023-04-13T14:14:32.532Z,15.08
2023-04-13T14:19:34.540Z,14.84
2023-04-13T14:24:36.140Z,14.91
2023-04-13T14:29:37.610Z,14.98
2023-04-13T14:34:39.054Z,14.89
2023-04-13T14:39:40.877Z,14.64
2023-04-13T14:44:42.970Z,14.53
2023-04-13T14:49:44.868Z,14.76
2023-04-13T14:54:46.547Z,14.97
2023-04-13T15:04:53.152Z,16.01
2023-04-13T15:09:55.253Z,16.23
2023-04-13T15:14:56.669Z,15.87
2023-04-13T15:19:58.264Z,15.04
2023-04-13T15:25:00.240Z,14.32
2023-04-13T15:30:03.289Z,13.94
2023-04-13T15:35:05.669Z,13.78
2023-04-13T15:40:07.974Z,13.64
2023-04-13T15:45:09.958Z,13.53
2023-04-13T15:50:11.700Z,13.60
2023-04-13T15:55:13.226Z,13.87
2023-04-13T16:00:15.322Z,14.12
2023-04-13T16:05:18.185Z,14.42
2023-04-13T16:10:19.941Z,14.58
2023-04-13T16:15:22.776Z,14.43
2023-04-13T16:20:28.236Z,14.31
2023-04-13T16:25:30.649Z,14.34
2023-04-13T16:30:32.849Z,14.33
2023-04-13T16:35:34.301Z,14.41
2023-04-13T16:40:36.291Z,14.34
2023-04-13T16:45:37.825Z,14.05
2023-04-13T16:50:39.386Z,13.72
2023-04-13T16:55:40.885Z,13.43
2023-04-13T17:00:42.535Z,13.27
2023-04-13T17:05:43.957Z,13.13
2023-04-13T17:10:46.132Z,13.05
2023-04-13T17:15:47.719Z,13.09
2023-04-13T17:20:56.270Z,13.08
2023-04-13T17:25:57.776Z,13.03
2023-04-13T17:30:59.219Z,13.04
2023-04-13T17:36:00.981Z,13.03
2023-04-13T17:41:02.480Z,12.93
2023-04-13T17:46:04.262Z,12.79
2023-04-13T17:51:11.416Z,12.60
2023-04-13T17:56:17.569Z,12.42
2023-04-13T18:01:19.117Z,12.24
2023-04-13T18:06:20.732Z,12.12
2023-04-13T18:11:22.165Z,11.97
2023-04-13T18:16:25.288Z,11.85
2023-04-13T18:21:27.528Z,11.75
2023-04-13T18:26:29.082Z,11.67
2023-04-13T18:31:30.904Z,11.61
2023-04-13T18:36:33.426Z,11.54
2023-04-13T18:41:34.980Z,11.50
2023-04-13T18:46:36.454Z,11.45
2023-04-13T18:51:38.702Z,11.38
2023-04-13T18:56:40.624Z,11.27
2023-04-13T19:01:42.101Z,11.19
2023-04-13T19:06:43.635Z,11.15
2023-04-13T19:11:47.481Z,11.14
2023-04-13T19:16:52.279Z,11.16
2023-04-13T19:21:57.169Z,11.15
2023-04-13T19:26:58.782Z,11.13
2023-04-13T19:32:00.302Z,11.08
2023-04-13T19:37:01.903Z,11.01
2023-04-13T19:42:03.501Z,10.92
2023-04-13T19:47:04.986Z,10.86
2023-04-13T19:52:06.441Z,10.87
2023-04-13T19:57:08.162Z,10.87
2023-04-13T20:02:09.834Z,10.86
2023-04-13T20:07:11.357Z,10.82
2023-04-13T20:12:12.936Z,10.77
2023-04-13T20:17:16.118Z,10.69
2023-04-13T20:22:18.212Z,10.56
2023-04-13T20:27:23.572Z,10.40
2023-04-13T20:32:25.221Z,10.22
2023-04-13T20:37:26.731Z,10.06
2023-04-13T20:42:30.486Z,9.93
2023-04-13T20:47:32.023Z,9.81
2023-04-13T20:52:33.654Z,9.76
2023-04-13T20:57:35.137Z,9.82
2023-04-13T21:02:36.768Z,9.78
2023-04-13T21:07:40.261Z,9.71
2023-04-13T21:12:41.690Z,9.63
2023-04-13T21:17:43.205Z,9.51
2023-04-13T21:22:44.667Z,9.54
2023-04-13T21:27:46.164Z,9.58
2023-04-13T21:32:47.702Z,9.54
2023-04-13T21:37:49.388Z,9.40
2023-04-13T21:42:50.851Z,9.26
2023-04-13T21:47:53.751Z,9.14
2023-04-13T21:52:55.940Z,9.08
2023-04-13T21:57:57.439Z,9.04
